createdAt,value
2018-01-28T00:00:06.460Z,29.83
2018-01-28T00:02:34.565Z,25.27
2018-01-28T00:05:02.937Z,23.60
2018-01-28T00:07:31.296Z,28.90
2018-01-28T00:09:59.640Z,20.70
2018-01-28T00:12:27.975Z,24.10
2018-01-28T00:14:56.313Z,21.23
2018-01-28T00:17:25.521Z,26.67
2018-01-28T00:19:53.852Z,23.97
2018-01-28T00:22:22.261Z,24.00
2018-01-28T00:24:51.421Z,17.33
2018-01-28T00:27:19.752Z,22.93
2018-01-28T00:29:48.863Z,20.50
2018-01-28T00:32:18.008Z,20.00
2018-01-28T00:34:46.322Z,21.10
2018-01-28T00:37:15.453Z,19.07
2018-01-28T00:39:43.767Z,23.53
2018-01-28T00:42:12.100Z,20.40
2018-01-28T00:44:40.419Z,22.00
2018-01-28T00:47:08.760Z,18.27
2018-01-28T00:49:37.087Z,18.40
2018-01-28T00:52:05.431Z,18.77
2018-01-28T00:54:33.756Z,16.93
2018-01-28T00:57:02.070Z,14.67
2018-01-28T00:59:30.396Z,18.20
2018-01-28T01:01:58.712Z,15.73
2018-01-28T01:04:27.828Z,15.70
2018-01-28T01:06:56.138Z,16.33
2018-01-28T01:09:24.471Z,18.40
2018-01-28T01:11:52.794Z,13.13
2018-01-28T01:14:21.127Z,19.53
2018-01-28T01:16:49.455Z,16.27
2018-01-28T01:19:17.788Z,15.27
2018-01-28T01:21:46.105Z,16.53
2018-01-28T01:24:14.435Z,14.50
2018-01-28T01:26:43.515Z,19.23
2018-01-28T01:29:12.616Z,15.07
2018-01-28T01:31:41.704Z,13.67
2018-01-28T01:34:10.043Z,17.30
2018-01-28T01:36:38.362Z,14.63
2018-01-28T01:39:07.503Z,14.40
2018-01-28T01:41:35.807Z,14.10
2018-01-28T01:44:04.132Z,14.83
2018-01-28T01:46:32.467Z,16.70
2018-01-28T01:49:00.785Z,18.13
2018-01-28T01:51:29.885Z,15.60
2018-01-28T01:53:58.963Z,15.23
2018-01-28T01:56:27.351Z,21.80
2018-01-28T01:58:56.438Z,15.93
2018-01-28T02:01:24.779Z,15.33
2018-01-28T02:03:53.109Z,13.87
2018-01-28T02:06:22.215Z,19.53
2018-01-28T02:08:51.454Z,16.30
2018-01-28T02:11:19.796Z,15.87
2018-01-28T02:13:48.110Z,18.00
2018-01-28T02:16:16.457Z,15.80
2018-01-28T02:18:44.773Z,17.83
2018-01-28T02:21:13.119Z,15.30
2018-01-28T02:23:41.435Z,13.57
2018-01-28T02:26:09.783Z,14.40
2018-01-28T02:28:38.126Z,13.77
2018-01-28T02:31:06.444Z,17.87
2018-01-28T02:33:34.796Z,17.47
2018-01-28T02:36:03.876Z,16.13
2018-01-28T02:38:32.206Z,13.73
2018-01-28T02:41:00.535Z,15.57
2018-01-28T02:43:28.878Z,21.23
2018-01-28T02:45:57.193Z,13.97
2018-01-28T02:48:25.519Z,14.87
2018-01-28T02:50:53.864Z,15.93
2018-01-28T02:53:22.227Z,12.70
2018-01-28T02:55:51.358Z,14.63
2018-01-28T02:58:20.427Z,13.20
2018-01-28T03:00:49.518Z,17.03
2018-01-28T03:03:17.851Z,14.27
2018-01-28T03:05:46.186Z,14.50
2018-01-28T03:08:15.269Z,15.10
2018-01-28T03:10:43.597Z,16.10
2018-01-28T03:13:11.910Z,14.23
2018-01-28T03:15:40.240Z,19.57
2018-01-28T03:18:08.572Z,14.87
2018-01-28T03:20:36.911Z,16.70
2018-01-28T03:23:05.244Z,15.00
2018-01-28T03:25:33.577Z,14.13
2018-01-28T03:28:01.908Z,16.33
2018-01-28T03:30:31.008Z,15.87
2018-01-28T03:33:00.119Z,17.00
2018-01-28T03:35:28.468Z,12.53
2018-01-28T03:37:56.786Z,15.10
2018-01-28T03:40:25.128Z,18.80
2018-01-28T03:42:53.436Z,14.50
2018-01-28T03:45:21.787Z,14.63
2018-01-28T03:47:50.874Z,15.43
2018-01-28T03:50:19.203Z,15.30
2018-01-28T03:52:47.574Z,13.30
2018-01-28T03:55:15.881Z,13.80
2018-01-28T03:57:44.404Z,11.10
2018-01-28T04:00:12.702Z,12.60
2018-01-28T04:02:41.192Z,16.60
2018-01-28T04:05:09.510Z,15.40
2018-01-28T04:07:41.356Z,12.67
2018-01-28T04:10:09.662Z,13.23
2018-01-28T04:12:37.995Z,8.40
2018-01-28T04:15:06.298Z,11.70
2018-01-28T04:17:34.636Z,11.13
2018-01-28T04:20:03.698Z,7.50
2018-01-28T04:22:32.014Z,6.90
2018-01-28T04:25:01.075Z,5.23
2018-01-28T04:27:29.395Z,4.83
2018-01-28T04:29:57.697Z,6.27
2018-01-28T04:32:26.050Z,6.93
2018-01-28T04:34:54.352Z,5.90
2018-01-28T04:37:22.647Z,6.00
2018-01-28T04:39:50.966Z,6.90
2018-01-28T04:42:20.051Z,7.83
2018-01-28T04:44:48.371Z,5.73
2018-01-28T04:47:16.676Z,5.87
2018-01-28T04:49:44.988Z,5.70
2018-01-28T04:52:13.290Z,4.80
2018-01-28T04:54:42.369Z,5.03
2018-01-28T04:57:10.659Z,4.70
2018-01-28T04:59:38.974Z,5.23
2018-01-28T05:02:07.273Z,4.83
2018-01-28T05:04:35.680Z,7.83
2018-01-28T05:07:03.996Z,6.00
2018-01-28T05:09:32.315Z,5.67
2018-01-28T05:12:00.618Z,10.07
2018-01-28T05:14:28.946Z,4.70
2018-01-28T05:16:57.291Z,6.60
2018-01-28T05:19:26.400Z,4.10
2018-01-28T05:21:54.722Z,3.90
2018-01-28T05:24:23.032Z,7.13
2018-01-28T05:26:51.356Z,4.13
2018-01-28T05:29:19.655Z,3.73
2018-01-28T05:31:47.966Z,3.97
2018-01-28T05:34:17.028Z,5.27
2018-01-28T05:36:45.367Z,4.67
2018-01-28T05:39:13.672Z,4.47
2018-01-28T05:41:41.981Z,3.50
2018-01-28T05:44:11.055Z,4.60
2018-01-28T05:46:39.377Z,4.93
2018-01-28T05:49:07.683Z,6.60
2018-01-28T05:51:36.006Z,4.60
2018-01-28T05:54:04.303Z,8.80
2018-01-28T05:56:33.395Z,7.00
2018-01-28T05:59:01.694Z,3.13
2018-01-28T06:01:30.778Z,3.70
2018-01-28T06:03:59.854Z,3.77
2018-01-28T06:06:28.174Z,5.63
2018-01-28T06:08:56.464Z,4.60
2018-01-28T06:11:24.791Z,14.50
2018-01-28T06:13:53.088Z,5.07
2018-01-28T06:16:22.178Z,4.97
2018-01-28T06:18:50.500Z,4.80
2018-01-28T06:21:18.821Z,4.30
2018-01-28T06:23:47.132Z,5.77
2018-01-28T06:26:16.210Z,4.13
2018-01-28T06:28:45.286Z,4.60
2018-01-28T06:31:13.618Z,4.40
2018-01-28T06:33:41.921Z,6.53
2018-01-28T06:36:10.229Z,7.17
2018-01-28T06:38:38.536Z,3.87
2018-01-28T06:41:07.624Z,8.40
2018-01-28T06:43:36.691Z,4.43
2018-01-28T06:46:05.009Z,4.80
2018-01-28T06:48:34.065Z,9.53
2018-01-28T06:51:02.384Z,3.83
2018-01-28T06:53:31.473Z,10.43
2018-01-28T06:55:59.782Z,6.50
2018-01-28T06:58:28.107Z,5.43
2018-01-28T07:00:57.188Z,4.87
2018-01-28T07:03:25.527Z,10.60
2018-01-28T07:05:54.600Z,5.00
2018-01-28T07:08:23.697Z,5.00
2018-01-28T07:10:52.755Z,2.37
2018-01-28T07:13:21.077Z,5.73
2018-01-28T07:15:49.386Z,5.87
2018-01-28T07:18:17.722Z,3.50
2018-01-28T07:20:46.776Z,7.53
2018-01-28T07:23:15.090Z,4.33
2018-01-28T07:25:44.155Z,5.73
2018-01-28T07:28:12.477Z,6.90
2018-01-28T07:30:41.538Z,4.20
2018-01-28T07:33:09.859Z,5.20
2018-01-28T07:35:38.156Z,6.23
2018-01-28T07:38:06.504Z,7.63
2018-01-28T07:40:35.572Z,8.70
2018-01-28T07:43:03.903Z,4.50
2018-01-28T07:45:32.220Z,6.13
2018-01-28T07:48:00.539Z,7.20
2018-01-28T07:50:29.607Z,5.83
2018-01-28T07:52:57.941Z,12.20
2018-01-28T07:55:26.245Z,6.00
2018-01-28T07:57:54.562Z,8.63
2018-01-28T08:00:23.632Z,7.20
2018-01-28T08:02:51.947Z,9.30
2018-01-28T08:05:20.273Z,8.10
2018-01-28T08:07:48.601Z,10.70
2018-01-28T08:10:23.380Z,8.40
2018-01-28T08:12:56.516Z,6.73
2018-01-28T08:15:25.606Z,10.70
2018-01-28T08:17:54.700Z,4.40
2018-01-28T08:20:22.999Z,4.57
2018-01-28T08:22:51.324Z,9.03
2018-01-28T08:25:19.623Z,10.50
2018-01-28T08:27:50.866Z,4.30
2018-01-28T08:30:19.164Z,3.93
2018-01-28T08:32:48.247Z,7.57
2018-01-28T08:35:16.547Z,4.43
2018-01-28T08:37:44.895Z,3.37
2018-01-28T08:40:13.183Z,8.63
2018-01-28T08:42:42.259Z,3.80
2018-01-28T08:45:10.584Z,5.07
2018-01-28T08:47:38.875Z,3.73
2018-01-28T08:50:07.197Z,3.03
2018-01-28T08:52:35.495Z,3.10
2018-01-28T08:55:03.815Z,2.23
2018-01-28T08:57:32.170Z,2.77
2018-01-28T09:00:00.454Z,5.93
2018-01-28T09:02:28.777Z,2.10
2018-01-28T09:04:57.117Z,4.37
2018-01-28T09:07:25.433Z,10.33
2018-01-28T09:09:53.778Z,5.50
2018-01-28T09:12:22.079Z,3.03
2018-01-28T09:15:10.174Z,2.23
2018-01-28T09:17:39.242Z,2.10
2018-01-28T09:20:07.559Z,2.50
2018-01-28T09:22:36.623Z,7.83
2018-01-28T09:25:04.942Z,7.97
2018-01-28T09:27:33.242Z,2.73
2018-01-28T09:30:01.560Z,4.23
2018-01-28T09:32:29.858Z,4.47
2018-01-28T09:34:58.934Z,2.10
2018-01-28T09:37:27.232Z,2.80
2018-01-28T09:39:56.327Z,10.53
2018-01-28T09:42:25.383Z,2.27
2018-01-28T09:44:53.712Z,1.70
2018-01-28T09:47:22.779Z,1.77
2018-01-28T09:49:51.100Z,1.50
2018-01-28T09:52:19.395Z,2.00
2018-01-28T09:54:47.685Z,1.90
2018-01-28T09:57:15.994Z,3.43
2018-01-28T09:59:44.293Z,1.60
2018-01-28T10:02:13.386Z,1.33
2018-01-28T10:04:42.470Z,1.37
2018-01-28T10:07:11.561Z,1.53
2018-01-28T10:09:39.877Z,1.60
2018-01-28T10:12:08.215Z,2.00
2018-01-28T10:14:36.522Z,2.90
2018-01-28T10:17:05.611Z,5.50
2018-01-28T10:19:34.683Z,2.63
2018-01-28T10:22:03.012Z,5.60
2018-01-28T10:24:31.310Z,2.47
2018-01-28T10:26:59.623Z,2.23
2018-01-28T10:29:27.924Z,1.83
2018-01-28T10:31:57.017Z,1.30
2018-01-28T10:34:26.074Z,1.30
2018-01-28T10:36:54.392Z,1.87
2018-01-28T10:39:23.721Z,1.30
2018-01-28T10:41:52.335Z,1.63
2018-01-28T10:44:21.027Z,2.40
2018-01-28T10:46:49.786Z,2.20
2018-01-28T10:49:22.955Z,1.33
2018-01-28T10:51:52.554Z,1.47
2018-01-28T10:54:29.061Z,1.77
2018-01-28T10:57:01.286Z,2.37
2018-01-28T10:59:29.857Z,5.40
2018-01-28T11:01:58.260Z,2.13
2018-01-28T11:04:27.338Z,3.47
2018-01-28T11:06:55.639Z,1.07
2018-01-28T11:09:24.713Z,1.40
2018-01-28T11:11:53.795Z,6.23
2018-01-28T11:14:22.121Z,2.80
2018-01-28T11:16:50.428Z,1.67
2018-01-28T11:19:18.786Z,2.50
2018-01-28T11:21:47.085Z,1.63
2018-01-28T11:24:15.405Z,2.17
2018-01-28T11:26:43.695Z,1.70
2018-01-28T11:29:12.783Z,1.40
2018-01-28T11:31:41.843Z,1.60
2018-01-28T11:34:10.160Z,5.53
2018-01-28T11:36:39.227Z,3.23
2018-01-28T11:39:07.599Z,4.23
2018-01-28T11:41:35.888Z,2.17
2018-01-28T11:44:04.186Z,35.03
2018-01-28T11:46:33.273Z,5.77
2018-01-28T11:49:01.571Z,21.43
2018-01-28T11:51:30.655Z,1.67
2018-01-28T11:53:58.954Z,2.43
2018-01-28T11:56:27.316Z,2.83
2018-01-28T11:58:56.370Z,5.17
2018-01-28T12:01:24.692Z,3.23
2018-01-28T12:03:53.849Z,1.23
2018-01-28T12:06:22.268Z,1.23
2018-01-28T12:08:51.346Z,2.83
2018-01-28T12:11:19.675Z,9.57
2018-01-28T12:13:47.966Z,15.30
2018-01-28T12:16:16.342Z,12.00
2018-01-28T12:18:45.416Z,7.90
2018-01-28T12:21:13.734Z,4.50
2018-01-28T12:23:42.086Z,2.90
2018-01-28T12:26:10.413Z,2.00
2018-01-28T12:28:38.715Z,3.10
2018-01-28T12:31:07.823Z,10.90
2018-01-28T12:33:36.121Z,4.30
2018-01-28T12:36:04.495Z,4.97
2018-01-28T12:38:32.845Z,2.30
2018-01-28T12:41:01.176Z,2.00
2018-01-28T12:43:29.503Z,3.47
2018-01-28T12:45:58.571Z,1.60
2018-01-28T12:48:26.937Z,2.63
2018-01-28T12:50:55.243Z,2.10
2018-01-28T12:53:24.342Z,1.50
2018-01-28T12:55:52.642Z,1.50
2018-01-28T12:58:21.724Z,4.53
2018-01-28T13:00:50.824Z,3.10
2018-01-28T13:03:19.138Z,15.33
2018-01-28T13:05:47.466Z,9.37
2018-01-28T13:08:16.620Z,3.03
2018-01-28T13:10:44.917Z,4.23
2018-01-28T13:13:13.236Z,1.13
2018-01-28T13:15:42.301Z,1.17
2018-01-28T13:18:10.663Z,1.07
2018-01-28T13:20:38.958Z,1.60
2018-01-28T13:23:07.279Z,3.33
2018-01-28T13:25:35.632Z,1.43
2018-01-28T13:28:03.989Z,1.23
2018-01-28T13:30:32.333Z,1.03
2018-01-28T13:33:00.700Z,1.30
2018-01-28T13:35:29.000Z,1.00
2018-01-28T13:37:57.335Z,7.67
2018-01-28T13:40:26.415Z,0.90
2018-01-28T13:42:54.722Z,1.00
2018-01-28T13:45:23.807Z,1.27
2018-01-28T13:47:52.908Z,0.90
2018-01-28T13:50:21.988Z,1.23
2018-01-28T13:52:50.284Z,3.00
2018-01-28T13:55:18.613Z,1.17
2018-01-28T13:57:46.965Z,3.83
2018-01-28T14:00:15.290Z,5.27
2018-01-28T14:02:43.631Z,6.97
2018-01-28T14:05:15.037Z,1.60
2018-01-28T14:07:43.339Z,1.53
2018-01-28T14:10:11.704Z,1.17
2018-01-28T14:12:40.758Z,2.00
2018-01-28T14:15:09.128Z,1.40
2018-01-28T14:17:37.414Z,3.27
2018-01-28T14:20:05.786Z,0.97
2018-01-28T14:22:34.084Z,1.17
2018-01-28T14:25:02.407Z,1.73
2018-01-28T14:27:30.798Z,1.13
2018-01-28T14:29:59.840Z,9.30
2018-01-28T14:32:28.191Z,1.63
2018-01-28T14:34:56.520Z,1.20
2018-01-28T14:37:24.886Z,1.33
2018-01-28T14:39:53.178Z,8.90
2018-01-28T14:42:22.275Z,1.20
2018-01-28T14:44:51.344Z,1.30
2018-01-28T14:47:19.666Z,1.60
2018-01-28T14:49:47.970Z,1.40
2018-01-28T14:52:16.348Z,1.87
2018-01-28T14:54:44.641Z,1.63
2018-01-28T14:57:13.014Z,2.30
2018-01-28T14:59:41.337Z,2.97
2018-01-28T15:02:09.654Z,3.13
2018-01-28T15:04:37.959Z,2.20
2018-01-28T15:07:06.324Z,1.77
2018-01-28T15:09:34.607Z,1.30
2018-01-28T15:12:02.968Z,1.17
2018-01-28T15:14:31.256Z,1.10
2018-01-28T15:16:59.630Z,1.70
2018-01-28T15:19:27.923Z,1.67
2018-01-28T15:21:56.232Z,1.10
2018-01-28T15:24:24.513Z,1.63
2018-01-28T15:26:52.884Z,1.40
2018-01-28T15:29:21.259Z,5.30
2018-01-28T15:31:49.581Z,2.80
2018-01-28T15:34:17.939Z,1.63
2018-01-28T15:36:46.282Z,2.03
2018-01-28T15:39:14.662Z,2.00
2018-01-28T15:41:42.994Z,2.13
2018-01-28T15:44:12.117Z,2.70
2018-01-28T15:46:40.472Z,2.90
2018-01-28T15:49:09.578Z,1.30
2018-01-28T15:51:37.883Z,2.70
2018-01-28T15:54:07.200Z,2.27
2018-01-28T15:56:38.752Z,2.37
2018-01-28T15:59:07.122Z,1.73
2018-01-28T16:01:35.457Z,2.50
2018-01-28T16:04:04.585Z,2.23
2018-01-28T16:06:33.702Z,2.63
2018-01-28T16:09:02.040Z,3.10
2018-01-28T16:11:30.388Z,2.23
2018-01-28T16:13:59.491Z,2.57
2018-01-28T16:16:28.554Z,3.53
2018-01-28T16:18:56.917Z,2.10
2018-01-28T16:21:25.272Z,1.73
2018-01-28T16:23:53.685Z,1.43
2018-01-28T16:26:21.997Z,3.07
2018-01-28T16:28:50.342Z,4.67
2018-01-28T16:31:22.166Z,2.60
2018-01-28T16:33:51.224Z,1.40
2018-01-28T16:36:19.602Z,2.20
2018-01-28T16:38:47.969Z,1.13
2018-01-28T16:41:16.325Z,1.83
2018-01-28T16:43:44.630Z,2.33
2018-01-28T16:46:12.951Z,2.97
2018-01-28T16:48:41.305Z,1.87
2018-01-28T16:51:09.672Z,1.30
2018-01-28T16:53:38.023Z,1.70
2018-01-28T16:56:06.343Z,2.53
2018-01-28T16:58:34.698Z,1.83
2018-01-28T17:01:06.073Z,1.60
2018-01-28T17:03:34.377Z,1.50
2018-01-28T17:06:02.695Z,2.23
2018-01-28T17:08:31.051Z,2.53
2018-01-28T17:10:59.362Z,3.50
2018-01-28T17:13:27.675Z,2.10
2018-01-28T17:15:57.001Z,1.40
2018-01-28T17:18:25.354Z,1.90
2018-01-28T17:20:53.680Z,2.30
2018-01-28T17:23:22.050Z,2.20
2018-01-28T17:25:50.426Z,2.03
2018-01-28T17:28:18.751Z,2.80
2018-01-28T17:30:47.043Z,2.90
2018-01-28T17:33:15.410Z,2.20
2018-01-28T17:35:48.470Z,2.30
2018-01-28T17:38:16.804Z,2.00
2018-01-28T17:40:45.914Z,2.70
2018-01-28T17:43:14.258Z,2.30
2018-01-28T17:45:42.562Z,2.80
2018-01-28T17:48:10.961Z,2.40
2018-01-28T17:50:39.345Z,2.40
2018-01-28T17:53:07.739Z,13.50
2018-01-28T17:55:36.799Z,4.87
2018-01-28T17:58:05.139Z,7.57
2018-01-28T18:00:33.472Z,3.50
2018-01-28T18:03:01.867Z,4.40
2018-01-28T18:05:30.226Z,3.83
2018-01-28T18:07:58.565Z,2.50
2018-01-28T18:10:26.921Z,2.17
2018-01-28T18:12:55.216Z,2.50
2018-01-28T18:15:23.589Z,2.20
2018-01-28T18:17:51.918Z,2.23
2018-01-28T18:20:20.329Z,2.33
2018-01-28T18:22:48.648Z,5.40
2018-01-28T18:25:17.027Z,2.80
2018-01-28T18:27:46.116Z,3.00
2018-01-28T18:30:14.498Z,2.40
2018-01-28T18:32:42.816Z,2.97
2018-01-28T18:35:11.199Z,3.53
2018-01-28T18:37:39.556Z,3.30
2018-01-28T18:40:08.723Z,3.20
2018-01-28T18:42:37.099Z,3.80
2018-01-28T18:45:05.436Z,4.40
2018-01-28T18:47:33.795Z,2.40
2018-01-28T18:50:02.186Z,2.33
2018-01-28T18:52:30.537Z,2.63
2018-01-28T18:54:58.939Z,2.50
2018-01-28T18:57:28.008Z,5.03
2018-01-28T18:59:57.183Z,2.40
2018-01-28T19:02:25.534Z,9.80
2018-01-28T19:04:54.792Z,7.70
2018-01-28T19:07:23.911Z,3.20
2018-01-28T19:09:53.011Z,2.93
2018-01-28T19:12:21.378Z,3.03
2018-01-28T19:14:49.786Z,2.80
2018-01-28T19:17:18.102Z,3.37
2018-01-28T19:19:46.422Z,3.47
2018-01-28T19:22:15.571Z,3.80
2018-01-28T19:24:43.979Z,2.80
2018-01-28T19:27:12.281Z,3.47
2018-01-28T19:29:41.647Z,3.60
2018-01-28T19:32:10.005Z,4.40
2018-01-28T19:34:38.372Z,3.40
2018-01-28T19:37:06.749Z,6.70
2018-01-28T19:39:35.119Z,8.97
2018-01-28T19:42:03.507Z,9.97
2018-01-28T19:44:31.862Z,9.30
2018-01-28T19:47:00.953Z,6.40
2018-01-28T19:49:29.315Z,8.50
2018-01-28T19:51:58.446Z,9.87
2018-01-28T19:54:26.797Z,14.23
2018-01-28T19:56:55.196Z,8.43
2018-01-28T19:59:23.584Z,10.77
2018-01-28T20:01:51.973Z,14.60
2018-01-28T20:04:20.327Z,14.87
2018-01-28T20:06:49.517Z,13.10
2018-01-28T20:09:18.648Z,19.63
2018-01-28T20:11:47.055Z,10.17
2018-01-28T20:14:15.433Z,8.73
2018-01-28T20:16:43.798Z,11.60
2018-01-28T20:19:12.123Z,10.10
2018-01-28T20:21:40.518Z,10.67
2018-01-28T20:24:09.639Z,8.43
2018-01-28T20:26:38.042Z,13.53
2018-01-28T20:29:06.476Z,12.70
2018-01-28T20:31:35.814Z,15.67
2018-01-28T20:34:04.232Z,23.50
2018-01-28T20:36:32.599Z,16.53
2018-01-28T20:39:00.992Z,19.80
2018-01-28T20:41:30.136Z,3.10
2018-01-28T20:43:58.519Z,3.83
2018-01-28T20:46:26.871Z,3.30
2018-01-28T20:48:55.290Z,7.13
2018-01-28T20:51:23.666Z,5.13
2018-01-28T20:53:52.043Z,3.70
2018-01-28T20:56:20.452Z,2.50
2018-01-28T20:58:48.803Z,3.83
2018-01-28T21:01:17.152Z,3.10
2018-01-28T21:03:45.555Z,3.63
2018-01-28T21:06:13.911Z,2.60
2018-01-28T21:08:43.076Z,3.50
2018-01-28T21:11:11.426Z,2.07
2018-01-28T21:13:39.766Z,2.80
2018-01-28T21:16:08.851Z,4.93
2018-01-28T21:18:37.994Z,12.00
2018-01-28T21:21:06.374Z,10.37
2018-01-28T21:23:34.731Z,12.87
2018-01-28T21:26:03.852Z,12.23
2018-01-28T21:28:32.195Z,4.27
2018-01-28T21:31:01.318Z,10.80
2018-01-28T21:33:29.666Z,17.90
2018-01-28T21:35:58.800Z,3.40
2018-01-28T21:38:27.137Z,2.90
2018-01-28T21:40:55.494Z,2.47
2018-01-28T21:43:23.793Z,2.90
2018-01-28T21:45:52.166Z,2.00
2018-01-28T21:48:20.497Z,3.60
2018-01-28T21:50:48.801Z,2.90
2018-01-28T21:53:17.153Z,2.80
2018-01-28T21:55:45.523Z,2.23
2018-01-28T21:58:13.832Z,2.30
2018-01-28T22:00:42.170Z,1.53
2018-01-28T22:03:11.234Z,1.93
2018-01-28T22:05:39.580Z,2.20
2018-01-28T22:08:07.958Z,3.00
2018-01-28T22:10:36.268Z,1.87
2018-01-28T22:13:05.517Z,2.17
2018-01-28T22:15:33.856Z,2.43
2018-01-28T22:18:02.221Z,3.27
2018-01-28T22:20:31.468Z,3.60
2018-01-28T22:22:59.779Z,1.83
2018-01-28T22:25:28.097Z,1.70
2018-01-28T22:27:56.448Z,2.20
2018-01-28T22:30:24.741Z,1.77
2018-01-28T22:32:53.106Z,1.40
2018-01-28T22:35:21.383Z,1.73
2018-01-28T22:37:49.729Z,1.57
2018-01-28T22:40:18.038Z,1.37
2018-01-28T22:42:46.404Z,2.40
2018-01-28T22:45:14.700Z,2.00
2018-01-28T22:47:43.054Z,1.20
2018-01-28T22:50:11.377Z,1.20
2018-01-28T22:52:39.677Z,1.60
2018-01-28T22:55:08.004Z,1.33
2018-01-28T22:57:36.356Z,1.50
2018-01-28T23:00:04.778Z,1.70
2018-01-28T23:02:33.093Z,1.00
2018-01-28T23:05:01.422Z,1.10
2018-01-28T23:07:29.781Z,1.23
2018-01-28T23:09:58.105Z,2.40
2018-01-28T23:12:26.404Z,1.70
2018-01-28T23:14:55.503Z,1.33
2018-01-28T23:17:23.826Z,1.47
2018-01-28T23:19:52.202Z,1.53
2018-01-28T23:22:20.510Z,1.30
2018-01-28T23:24:48.841Z,3.33
2018-01-28T23:27:17.147Z,1.43
2018-01-28T23:29:45.499Z,1.20
2018-01-28T23:32:13.819Z,1.70
2018-01-28T23:34:42.187Z,1.13
2018-01-28T23:37:10.507Z,1.63
2018-01-28T23:39:38.855Z,1.80
2018-01-28T23:42:07.150Z,3.40
2018-01-28T23:44:36.297Z,1.30
2018-01-28T23:47:04.607Z,1.20
2018-01-28T23:49:32.914Z,1.50
2018-01-28T23:52:01.996Z,1.50
2018-01-28T23:54:30.302Z,1.50
2018-01-28T23:56:58.634Z,1.63
2018-01-28T23:59:26.976Z,1.60
